Aeroporto :
LOGIN :

Iscrizione | Disclaimer

   EN    FR    IT 

 










Sommario :    VFR   VFR Marginale   IFR   IFR Intensivo   IFR Molto Intensivo
Visibilità : 
Base nubi : 
>= 8 km
>= 3000ft
5 / 8 km
1000 / 3000 ft
1500m / 5 km
500 / 1000 ft
800 / 1500m
200 / 500 ft
< 800m
< 200 ft
Simboli :   Temporali  Nebbia  Neve Forte  Precipitazioni Forti  Vento > 20 kt
SIGMETs :   Varie  Temporali  Ghiacco  Turbolenza  Onda orograficha  Ceneri Vulcaniche






- Altitudine del aeroporto : 359 ft
- Codice IATA : BVA


LFOB - Beauvais

ULTIMO METAR :
  • 231230Z AUTO /////KT 9999 FEW012 SCT140 15/12 Q1010

METARs OBSOLETI :
  • 231200Z AUTO /////KT 9999 BKN012 BKN120 BKN140 14/12 Q1011
  • 231130Z AUTO 09010KT 040V110 9999 SCT011 BKN140 14/11 Q1011 NOSIG
  • 231100Z AUTO 09009KT 9999 FEW011 BKN110 BKN130 14/11 Q1012 NOSIG
  • 231030Z AUTO 11009KT 9999 SCT012 BKN110 13/11 Q1013 NOSIG
  • 231000Z AUTO 09010KT 9999 4000 NSC 13/11 Q1012 NOSIG
  • 230930Z AUTO 07010KT CAVOK 13/11 Q1013 NOSIG

TAF TAF LFOB
Valido dal 23 a 12 ore il 24 a 12 ore UTC


231100Z 2312/2412 09010KT CAVOK
TEMPO 2312/2315 BKN012
BECMG 2320/2323 15005KT 3000 BR
PROB40
TEMPO 2323/2405 0300 FG VV///
BECMG 2405/2408 8000 NSW OVC005
BECMG 2408/2411 18015G25KT OVC013
ATIS : +33 3 44 11 49 28



MetMap, La meteo Aeronautica in un colpo d'occhio ! - Copyright ORBIFLY Dicembre 2007 - Disclaimer

ORBIFLY MET'MAP TEAM :

Programmazione e sviluppo : Alexandra Zaïnal
Concezione e sviluppo : Baudouin d'Aumeries
Co-Programmazione e sviluppo : Marc-Olivier Méhu
Supporto tecnico e logistico : Manuel Goepfert
Aiuto per la traduzione : Arnaldo La Scala

Contatto : metmap@orbifly.com




FONTI E CREDITI :

   NOAA